createdAt,value
2022-12-23T00:05:19.522Z,7.34
2022-12-23T00:10:43.493Z,7.38
2022-12-23T00:16:13.591Z,7.42
2022-12-23T00:21:42.603Z,7.43
2022-12-23T00:27:07.565Z,7.42
2022-12-23T00:32:32.518Z,7.51
2022-12-23T00:38:06.529Z,7.49
2022-12-23T00:43:31.515Z,7.45
2022-12-23T00:49:08.574Z,7.48
2022-12-23T00:54:36.576Z,7.47
2022-12-23T01:00:00.585Z,7.51
2022-12-23T12:42:32.889Z,9.61
2022-12-23T12:48:16.066Z,9.56
2022-12-23T12:53:45.863Z,9.54
2022-12-23T12:59:13.875Z,9.47
2022-12-23T13:05:01.913Z,9.44
2022-12-23T13:10:41.889Z,9.43
2022-12-23T13:16:14.916Z,9.44
2022-12-23T13:21:46.939Z,9.41
2022-12-23T13:27:20.929Z,9.40
2022-12-23T13:33:06.981Z,9.35
2022-12-23T13:38:49.883Z,9.29
2022-12-23T13:44:25.918Z,9.25
2022-12-23T13:50:05.927Z,9.19
2022-12-23T13:55:39.882Z,9.15
2022-12-23T14:01:30.122Z,9.07
2022-12-23T14:07:03.977Z,8.98
2022-12-23T14:12:35.932Z,8.85
2022-12-23T14:18:11.919Z,8.79
2022-12-23T14:24:02.502Z,8.75
2022-12-23T14:29:49.225Z,8.67
2022-12-23T14:35:37.006Z,8.67
2022-12-23T14:41:28.192Z,8.64
2022-12-23T14:47:04.268Z,8.57
2022-12-23T14:53:08.313Z,8.54
2022-12-23T14:59:03.226Z,8.55
2022-12-23T15:04:44.227Z,8.55
2022-12-23T15:10:27.285Z,8.51
2022-12-23T15:16:14.401Z,8.48
2022-12-23T15:21:48.289Z,8.45
2022-12-23T15:27:28.005Z,8.44
2022-12-23T15:32:56.196Z,8.44
2022-12-23T15:38:34.119Z,8.38
2022-12-23T15:44:00.140Z,8.38
2022-12-23T15:49:35.107Z,8.33
2022-12-23T15:55:16.272Z,8.28
2022-12-23T16:06:43.433Z,8.15
2022-12-23T16:12:15.200Z,8.13
2022-12-23T16:17:46.354Z,8.12
2022-12-23T16:23:24.160Z,8.07
2022-12-23T16:29:00.345Z,8.07
2022-12-23T16:34:27.477Z,8.06
2022-12-23T16:39:57.410Z,8.02
2022-12-23T16:45:58.315Z,8.00
2022-12-23T16:51:42.389Z,7.97
2022-12-23T16:57:08.302Z,7.98
2022-12-23T17:02:52.670Z,7.96
2022-12-23T17:08:25.356Z,7.97
2022-12-23T17:13:56.701Z,7.97
2022-12-23T17:19:31.191Z,7.94
2022-12-23T17:25:02.160Z,7.93
2022-12-23T17:30:34.237Z,7.92
2022-12-23T17:36:14.372Z,7.90
2022-12-23T17:41:44.286Z,7.89
2022-12-23T17:47:13.127Z,7.89
2022-12-23T17:52:39.998Z,7.89
2022-12-23T17:58:05.034Z,7.89
2022-12-23T18:03:38.181Z,7.89
2022-12-23T18:09:06.058Z,7.86
2022-12-23T18:14:36.076Z,7.88
2022-12-23T18:20:01.028Z,7.87
2022-12-23T18:25:34.140Z,7.87
2022-12-23T18:31:00.123Z,7.82
2022-12-23T18:36:35.125Z,7.84
2022-12-23T18:42:03.048Z,7.86
2022-12-23T18:47:29.059Z,7.87
2022-12-23T18:52:54.057Z,7.88
2022-12-23T18:58:22.060Z,7.87
2022-12-23T19:03:47.062Z,7.87
2022-12-23T19:09:11.079Z,7.86
2022-12-23T19:14:39.095Z,7.89
2022-12-23T19:20:03.106Z,7.92
2022-12-23T19:25:29.057Z,7.96
2022-12-23T19:30:57.068Z,7.95
2022-12-23T19:36:24.128Z,7.93
2022-12-23T19:41:48.088Z,7.92
2022-12-23T19:47:16.068Z,7.89
2022-12-23T19:52:40.075Z,7.88
2022-12-23T19:58:05.091Z,7.87
2022-12-23T20:03:32.092Z,7.88
2022-12-23T20:09:00.690Z,7.87
2022-12-23T20:14:32.247Z,7.84
2022-12-23T20:20:02.085Z,7.84
2022-12-23T20:25:26.126Z,7.88
2022-12-23T20:30:51.118Z,7.91
2022-12-23T20:36:18.127Z,7.91
2022-12-23T20:41:43.087Z,8.00
2022-12-23T20:47:07.131Z,8.06
2022-12-23T20:52:35.129Z,8.13
2022-12-23T20:58:01.090Z,8.21
2022-12-23T21:03:26.130Z,8.22
2022-12-23T21:08:54.105Z,8.21
2022-12-23T21:14:20.106Z,8.24
2022-12-23T21:19:44.129Z,8.29
2022-12-23T21:25:12.194Z,8.32
2022-12-23T21:30:38.112Z,8.32
2022-12-23T21:36:03.142Z,8.39
2022-12-23T21:41:31.160Z,8.38
2022-12-23T21:46:58.236Z,8.46
2022-12-23T21:52:22.204Z,8.50
2022-12-23T21:57:50.165Z,8.57
2022-12-23T22:03:14.170Z,8.76
2022-12-23T22:08:39.202Z,8.93
2022-12-23T22:14:07.127Z,9.07
2022-12-23T22:19:32.137Z,9.07
2022-12-23T22:24:56.136Z,9.09
2022-12-23T22:30:24.169Z,9.10
2022-12-23T22:35:48.146Z,9.07
2022-12-23T22:41:13.194Z,9.02
2022-12-23T22:46:47.118Z,9.06
2022-12-23T22:52:12.169Z,9.13
2022-12-23T22:57:36.195Z,9.08
2022-12-23T23:03:04.175Z,9.30
2022-12-23T23:08:28.154Z,9.45
2022-12-23T23:13:53.194Z,9.37
2022-12-23T23:19:22.144Z,9.35
2022-12-23T23:24:47.145Z,9.48
2022-12-23T23:30:11.192Z,9.59
2022-12-23T23:35:39.183Z,9.67
2022-12-23T23:41:03.196Z,9.69
2022-12-23T23:46:34.302Z,9.73
2022-12-23T23:52:02.157Z,9.73
2022-12-23T23:57:26.210Z,9.77
